sensor_id;sensor_type;location;lat;lon;timestamp;P1;durP1;ratioP1;P2;durP2;ratioP2
79631;SDS011;69108;41.120;16.874;2023-08-20T00:00:14;21.58;;;13.05;;
79631;SDS011;69108;41.120;16.874;2023-08-20T00:02:44;17.38;;;11.93;;
79631;SDS011;69108;41.120;16.874;2023-08-20T00:05:13;16.75;;;12.35;;
79631;SDS011;69108;41.120;16.874;2023-08-20T00:07:42;18.00;;;12.23;;
79631;SDS011;69108;41.120;16.874;2023-08-20T00:10:10;17.42;;;11.88;;
79631;SDS011;69108;41.120;16.874;2023-08-20T00:12:37;20.08;;;12.93;;
79631;SDS011;69108;41.120;16.874;2023-08-20T00:15:05;18.88;;;12.27;;
79631;SDS011;69108;41.120;16.874;2023-08-20T00:17:33;18.55;;;12.43;;
79631;SDS011;69108;41.120;16.874;2023-08-20T00:20:04;17.30;;;12.25;;
79631;SDS011;69108;41.120;16.874;2023-08-20T00:22:35;19.65;;;12.02;;
79631;SDS011;69108;41.120;16.874;2023-08-20T00:25:03;17.20;;;12.43;;
79631;SDS011;69108;41.120;16.874;2023-08-20T00:27:34;16.33;;;12.10;;
79631;SDS011;69108;41.120;16.874;2023-08-20T00:30:04;17.40;;;11.98;;
79631;SDS011;69108;41.120;16.874;2023-08-20T00:32:32;16.48;;;11.65;;
79631;SDS011;69108;41.120;16.874;2023-08-20T00:37:30;19.42;;;11.35;;
79631;SDS011;69108;41.120;16.874;2023-08-20T00:39:57;18.27;;;11.73;;
79631;SDS011;69108;41.120;16.874;2023-08-20T00:44:51;16.23;;;10.75;;
79631;SDS011;69108;41.120;16.874;2023-08-20T00:47:19;19.42;;;11.15;;
79631;SDS011;69108;41.120;16.874;2023-08-20T00:49:47;18.98;;;10.73;;
79631;SDS011;69108;41.120;16.874;2023-08-20T00:52:14;17.13;;;12.20;;
79631;SDS011;69108;41.120;16.874;2023-08-20T00:54:46;15.55;;;11.02;;
79631;SDS011;69108;41.120;16.874;2023-08-20T00:57:17;16.90;;;10.88;;
79631;SDS011;69108;41.120;16.874;2023-08-20T00:59:46;16.00;;;11.68;;
79631;SDS011;69108;41.120;16.874;2023-08-20T01:02:14;17.02;;;10.98;;
79631;SDS011;69108;41.120;16.874;2023-08-20T01:04:41;16.13;;;10.75;;
79631;SDS011;69108;41.120;16.874;2023-08-20T01:07:10;17.05;;;11.05;;
79631;SDS011;69108;41.120;16.874;2023-08-20T01:09:43;15.13;;;10.52;;
79631;SDS011;69108;41.120;16.874;2023-08-20T01:12:17;15.70;;;11.93;;
79631;SDS011;69108;41.120;16.874;2023-08-20T01:14:46;19.67;;;11.43;;
79631;SDS011;69108;41.120;16.874;2023-08-20T01:17:29;16.45;;;11.23;;
79631;SDS011;69108;41.120;16.874;2023-08-20T01:19:56;16.27;;;11.02;;
79631;SDS011;69108;41.120;16.874;2023-08-20T01:25:32;16.77;;;11.07;;
79631;SDS011;69108;41.120;16.874;2023-08-20T01:28:27;15.13;;;10.30;;
79631;SDS011;69108;41.120;16.874;2023-08-20T01:30:54;15.88;;;11.75;;
79631;SDS011;69108;41.120;16.874;2023-08-20T01:33:23;14.68;;;10.75;;
79631;SDS011;69108;41.120;16.874;2023-08-20T01:35:51;16.77;;;11.70;;
79631;SDS011;69108;41.120;16.874;2023-08-20T01:38:19;16.17;;;11.23;;
79631;SDS011;69108;41.120;16.874;2023-08-20T01:40:46;16.65;;;11.88;;
79631;SDS011;69108;41.120;16.874;2023-08-20T01:43:13;15.50;;;11.63;;
79631;SDS011;69108;41.120;16.874;2023-08-20T01:45:43;15.70;;;11.13;;
79631;SDS011;69108;41.120;16.874;2023-08-20T01:48:11;16.30;;;11.70;;
79631;SDS011;69108;41.120;16.874;2023-08-20T01:50:38;17.40;;;10.68;;
79631;SDS011;69108;41.120;16.874;2023-08-20T01:53:07;18.05;;;11.35;;
79631;SDS011;69108;41.120;16.874;2023-08-20T01:55:34;18.67;;;11.38;;
79631;SDS011;69108;41.120;16.874;2023-08-20T01:58:01;17.10;;;11.13;;
79631;SDS011;69108;41.120;16.874;2023-08-20T02:00:30;17.42;;;11.48;;
79631;SDS011;69108;41.120;16.874;2023-08-20T02:03:00;14.68;;;11.40;;
79631;SDS011;69108;41.120;16.874;2023-08-20T02:05:28;16.60;;;11.48;;
79631;SDS011;69108;41.120;16.874;2023-08-20T02:10:22;15.85;;;11.98;;
79631;SDS011;69108;41.120;16.874;2023-08-20T02:12:50;15.85;;;11.23;;
79631;SDS011;69108;41.120;16.874;2023-08-20T02:15:18;17.52;;;11.38;;
79631;SDS011;69108;41.120;16.874;2023-08-20T02:17:45;14.98;;;11.70;;
79631;SDS011;69108;41.120;16.874;2023-08-20T02:20:15;16.38;;;10.65;;
79631;SDS011;69108;41.120;16.874;2023-08-20T02:22:42;15.88;;;11.65;;
79631;SDS011;69108;41.120;16.874;2023-08-20T02:25:10;16.13;;;11.27;;
79631;SDS011;69108;41.120;16.874;2023-08-20T02:27:39;14.60;;;11.25;;
79631;SDS011;69108;41.120;16.874;2023-08-20T02:30:07;16.05;;;11.32;;
79631;SDS011;69108;41.120;16.874;2023-08-20T02:32:39;15.95;;;10.70;;
79631;SDS011;69108;41.120;16.874;2023-08-20T02:35:11;14.65;;;10.20;;
79631;SDS011;69108;41.120;16.874;2023-08-20T02:37:42;16.67;;;11.23;;
79631;SDS011;69108;41.120;16.874;2023-08-20T02:40:11;15.23;;;10.60;;
79631;SDS011;69108;41.120;16.874;2023-08-20T02:42:39;15.77;;;10.93;;
79631;SDS011;69108;41.120;16.874;2023-08-20T02:45:07;16.45;;;11.07;;
79631;SDS011;69108;41.120;16.874;2023-08-20T02:47:35;15.35;;;10.68;;
79631;SDS011;69108;41.120;16.874;2023-08-20T02:50:02;15.40;;;10.32;;
79631;SDS011;69108;41.120;16.874;2023-08-20T02:54:59;15.55;;;10.05;;
79631;SDS011;69108;41.120;16.874;2023-08-20T02:57:26;13.55;;;10.05;;
79631;SDS011;69108;41.120;16.874;2023-08-20T02:59:53;13.77;;;10.45;;
79631;SDS011;69108;41.120;16.874;2023-08-20T03:02:20;15.00;;;10.60;;
79631;SDS011;69108;41.120;16.874;2023-08-20T03:04:48;15.00;;;10.98;;
79631;SDS011;69108;41.120;16.874;2023-08-20T03:07:15;22.42;;;12.43;;
79631;SDS011;69108;41.120;16.874;2023-08-20T03:09:42;15.23;;;10.27;;
79631;SDS011;69108;41.120;16.874;2023-08-20T03:12:11;16.38;;;10.23;;
79631;SDS011;69108;41.120;16.874;2023-08-20T03:14:40;14.20;;;10.20;;
79631;SDS011;69108;41.120;16.874;2023-08-20T03:17:08;15.50;;;10.50;;
79631;SDS011;69108;41.120;16.874;2023-08-20T03:19:35;14.55;;;9.55;;
79631;SDS011;69108;41.120;16.874;2023-08-20T03:22:02;17.95;;;10.85;;
79631;SDS011;69108;41.120;16.874;2023-08-20T03:24:30;13.93;;;10.65;;
79631;SDS011;69108;41.120;16.874;2023-08-20T03:29:26;15.77;;;10.52;;
79631;SDS011;69108;41.120;16.874;2023-08-20T03:31:53;15.95;;;10.55;;
79631;SDS011;69108;41.120;16.874;2023-08-20T03:34:20;12.75;;;9.30;;
79631;SDS011;69108;41.120;16.874;2023-08-20T03:36:50;14.27;;;10.38;;
79631;SDS011;69108;41.120;16.874;2023-08-20T03:41:45;16.20;;;10.35;;
79631;SDS011;69108;41.120;16.874;2023-08-20T03:44:12;16.23;;;10.40;;
79631;SDS011;69108;41.120;16.874;2023-08-20T03:46:41;14.52;;;10.13;;
79631;SDS011;69108;41.120;16.874;2023-08-20T03:49:11;13.43;;;9.77;;
79631;SDS011;69108;41.120;16.874;2023-08-20T03:51:38;12.82;;;9.38;;
79631;SDS011;69108;41.120;16.874;2023-08-20T03:54:07;15.18;;;10.77;;
79631;SDS011;69108;41.120;16.874;2023-08-20T03:56:34;15.70;;;9.77;;
79631;SDS011;69108;41.120;16.874;2023-08-20T04:01:28;14.73;;;10.00;;
79631;SDS011;69108;41.120;16.874;2023-08-20T04:03:58;17.58;;;10.63;;
79631;SDS011;69108;41.120;16.874;2023-08-20T04:06:26;13.73;;;10.82;;
79631;SDS011;69108;41.120;16.874;2023-08-20T04:08:53;13.82;;;10.05;;
79631;SDS011;69108;41.120;16.874;2023-08-20T04:11:20;15.73;;;10.13;;
79631;SDS011;69108;41.120;16.874;2023-08-20T04:13:48;14.90;;;10.13;;
79631;SDS011;69108;41.120;16.874;2023-08-20T04:16:15;13.63;;;10.50;;
79631;SDS011;69108;41.120;16.874;2023-08-20T04:18:45;14.23;;;10.30;;
79631;SDS011;69108;41.120;16.874;2023-08-20T04:21:15;14.88;;;10.95;;
79631;SDS011;69108;41.120;16.874;2023-08-20T04:23:49;12.48;;;9.75;;
79631;SDS011;69108;41.120;16.874;2023-08-20T04:26:16;14.25;;;9.68;;
79631;SDS011;69108;41.120;16.874;2023-08-20T04:28:43;14.63;;;10.05;;
79631;SDS011;69108;41.120;16.874;2023-08-20T04:31:10;13.95;;;10.27;;
79631;SDS011;69108;41.120;16.874;2023-08-20T04:33:38;13.13;;;10.25;;
79631;SDS011;69108;41.120;16.874;2023-08-20T04:36:05;12.18;;;9.23;;
79631;SDS011;69108;41.120;16.874;2023-08-20T04:38:34;13.85;;;10.13;;
79631;SDS011;69108;41.120;16.874;2023-08-20T04:41:01;16.30;;;10.73;;
79631;SDS011;69108;41.120;16.874;2023-08-20T04:43:28;13.70;;;10.27;;
79631;SDS011;69108;41.120;16.874;2023-08-20T04:45:56;14.77;;;9.77;;
79631;SDS011;69108;41.120;16.874;2023-08-20T04:48:23;12.15;;;10.10;;
79631;SDS011;69108;41.120;16.874;2023-08-20T04:50:51;13.77;;;9.80;;
79631;SDS011;69108;41.120;16.874;2023-08-20T04:53:19;13.75;;;9.85;;
79631;SDS011;69108;41.120;16.874;2023-08-20T04:55:47;14.40;;;9.75;;
79631;SDS011;69108;41.120;16.874;2023-08-20T04:58:14;13.48;;;9.80;;
79631;SDS011;69108;41.120;16.874;2023-08-20T05:00:43;14.52;;;10.10;;
79631;SDS011;69108;41.120;16.874;2023-08-20T05:03:10;14.77;;;10.13;;
79631;SDS011;69108;41.120;16.874;2023-08-20T05:05:37;13.43;;;9.13;;
79631;SDS011;69108;41.120;16.874;2023-08-20T05:10:35;17.00;;;10.27;;
79631;SDS011;69108;41.120;16.874;2023-08-20T05:13:04;11.77;;;8.98;;
79631;SDS011;69108;41.120;16.874;2023-08-20T05:15:31;15.88;;;10.02;;
79631;SDS011;69108;41.120;16.874;2023-08-20T05:20:25;14.98;;;9.80;;
79631;SDS011;69108;41.120;16.874;2023-08-20T05:22:52;12.02;;;9.40;;
79631;SDS011;69108;41.120;16.874;2023-08-20T05:27:50;18.35;;;9.35;;
79631;SDS011;69108;41.120;16.874;2023-08-20T05:30:20;23.45;;;9.70;;
79631;SDS011;69108;41.120;16.874;2023-08-20T05:32:48;21.23;;;10.32;;
79631;SDS011;69108;41.120;16.874;2023-08-20T05:35:17;18.95;;;9.80;;
79631;SDS011;69108;41.120;16.874;2023-08-20T05:37:44;18.27;;;9.70;;
79631;SDS011;69108;41.120;16.874;2023-08-20T05:42:38;14.63;;;9.73;;
79631;SDS011;69108;41.120;16.874;2023-08-20T05:45:09;15.80;;;9.50;;
79631;SDS011;69108;41.120;16.874;2023-08-20T05:50:08;13.00;;;10.02;;
79631;SDS011;69108;41.120;16.874;2023-08-20T05:52:36;15.30;;;10.65;;
79631;SDS011;69108;41.120;16.874;2023-08-20T05:55:07;15.02;;;10.55;;
79631;SDS011;69108;41.120;16.874;2023-08-20T05:57:35;13.27;;;10.30;;
79631;SDS011;69108;41.120;16.874;2023-08-20T06:00:03;14.15;;;10.32;;
79631;SDS011;69108;41.120;16.874;2023-08-20T06:02:31;14.93;;;10.02;;
79631;SDS011;69108;41.120;16.874;2023-08-20T06:05:00;17.95;;;10.52;;
79631;SDS011;69108;41.120;16.874;2023-08-20T06:07:31;12.48;;;10.73;;
79631;SDS011;69108;41.120;16.874;2023-08-20T06:09:59;15.35;;;10.15;;
79631;SDS011;69108;41.120;16.874;2023-08-20T06:12:30;16.30;;;10.57;;
79631;SDS011;69108;41.120;16.874;2023-08-20T06:14:57;15.70;;;12.18;;
79631;SDS011;69108;41.120;16.874;2023-08-20T06:17:24;16.50;;;11.43;;
79631;SDS011;69108;41.120;16.874;2023-08-20T06:19:53;16.60;;;11.23;;
79631;SDS011;69108;41.120;16.874;2023-08-20T06:22:23;14.75;;;10.15;;
79631;SDS011;69108;41.120;16.874;2023-08-20T06:24:50;17.02;;;10.65;;
79631;SDS011;69108;41.120;16.874;2023-08-20T06:27:20;15.48;;;10.32;;
79631;SDS011;69108;41.120;16.874;2023-08-20T06:29:49;15.23;;;10.25;;
79631;SDS011;69108;41.120;16.874;2023-08-20T06:32:17;15.60;;;10.48;;
79631;SDS011;69108;41.120;16.874;2023-08-20T06:34:46;18.00;;;10.90;;
79631;SDS011;69108;41.120;16.874;2023-08-20T06:37:14;15.02;;;10.85;;
79631;SDS011;69108;41.120;16.874;2023-08-20T06:39:43;15.05;;;10.60;;
79631;SDS011;69108;41.120;16.874;2023-08-20T06:42:11;19.20;;;10.85;;
79631;SDS011;69108;41.120;16.874;2023-08-20T06:44:39;14.75;;;10.00;;
79631;SDS011;69108;41.120;16.874;2023-08-20T06:47:06;15.57;;;10.35;;
79631;SDS011;69108;41.120;16.874;2023-08-20T06:49:34;15.63;;;10.00;;
79631;SDS011;69108;41.120;16.874;2023-08-20T06:52:01;17.25;;;10.60;;
79631;SDS011;69108;41.120;16.874;2023-08-20T06:54:31;14.77;;;10.98;;
79631;SDS011;69108;41.120;16.874;2023-08-20T06:57:00;18.02;;;11.10;;
79631;SDS011;69108;41.120;16.874;2023-08-20T06:59:28;17.60;;;11.20;;
79631;SDS011;69108;41.120;16.874;2023-08-20T07:01:55;15.23;;;10.10;;
79631;SDS011;69108;41.120;16.874;2023-08-20T07:04:22;15.73;;;10.77;;
79631;SDS011;69108;41.120;16.874;2023-08-20T07:06:50;15.30;;;10.48;;
79631;SDS011;69108;41.120;16.874;2023-08-20T07:09:23;13.75;;;9.85;;
79631;SDS011;69108;41.120;16.874;2023-08-20T07:11:52;16.90;;;12.30;;
79631;SDS011;69108;41.120;16.874;2023-08-20T07:14:22;15.90;;;10.90;;
79631;SDS011;69108;41.120;16.874;2023-08-20T07:16:51;14.15;;;11.13;;
79631;SDS011;69108;41.120;16.874;2023-08-20T07:19:19;16.63;;;10.82;;
79631;SDS011;69108;41.120;16.874;2023-08-20T07:21:47;15.55;;;10.77;;
79631;SDS011;69108;41.120;16.874;2023-08-20T07:24:14;15.55;;;11.32;;
79631;SDS011;69108;41.120;16.874;2023-08-20T07:26:50;15.55;;;11.77;;
79631;SDS011;69108;41.120;16.874;2023-08-20T07:29:22;16.08;;;11.50;;
79631;SDS011;69108;41.120;16.874;2023-08-20T07:31:49;14.30;;;10.52;;
79631;SDS011;69108;41.120;16.874;2023-08-20T07:34:16;20.00;;;12.60;;
79631;SDS011;69108;41.120;16.874;2023-08-20T07:39:12;16.10;;;11.15;;
79631;SDS011;69108;41.120;16.874;2023-08-20T07:41:41;16.17;;;11.05;;
79631;SDS011;69108;41.120;16.874;2023-08-20T07:44:09;16.83;;;12.10;;
79631;SDS011;69108;41.120;16.874;2023-08-20T07:46:39;17.70;;;11.18;;
79631;SDS011;69108;41.120;16.874;2023-08-20T07:49:08;18.20;;;12.50;;
79631;SDS011;69108;41.120;16.874;2023-08-20T07:51:42;18.83;;;11.98;;
79631;SDS011;69108;41.120;16.874;2023-08-20T07:54:13;16.95;;;12.20;;
79631;SDS011;69108;41.120;16.874;2023-08-20T07:56:41;17.27;;;12.05;;
79631;SDS011;69108;41.120;16.874;2023-08-20T07:59:11;20.40;;;11.88;;
79631;SDS011;69108;41.120;16.874;2023-08-20T08:01:42;16.92;;;11.68;;
79631;SDS011;69108;41.120;16.874;2023-08-20T08:04:12;17.48;;;12.05;;
79631;SDS011;69108;41.120;16.874;2023-08-20T08:06:46;16.13;;;11.98;;
79631;SDS011;69108;41.120;16.874;2023-08-20T08:09:20;17.13;;;11.45;;
79631;SDS011;69108;41.120;16.874;2023-08-20T08:11:48;17.42;;;13.00;;
79631;SDS011;69108;41.120;16.874;2023-08-20T08:14:16;19.15;;;12.32;;
79631;SDS011;69108;41.120;16.874;2023-08-20T08:19:12;13.18;;;11.50;;
79631;SDS011;69108;41.120;16.874;2023-08-20T08:21:39;14.82;;;11.85;;
79631;SDS011;69108;41.120;16.874;2023-08-20T08:24:07;16.00;;;11.13;;
79631;SDS011;69108;41.120;16.874;2023-08-20T08:26:34;15.80;;;12.35;;
79631;SDS011;69108;41.120;16.874;2023-08-20T08:29:01;17.95;;;11.43;;
79631;SDS011;69108;41.120;16.874;2023-08-20T08:31:29;15.82;;;11.63;;
79631;SDS011;69108;41.120;16.874;2023-08-20T08:33:57;15.98;;;11.13;;
79631;SDS011;69108;41.120;16.874;2023-08-20T08:36:24;13.43;;;11.02;;
79631;SDS011;69108;41.120;16.874;2023-08-20T08:38:51;16.77;;;12.32;;
79631;SDS011;69108;41.120;16.874;2023-08-20T08:41:21;15.00;;;11.40;;
79631;SDS011;69108;41.120;16.874;2023-08-20T08:43:49;18.75;;;11.82;;
79631;SDS011;69108;41.120;16.874;2023-08-20T08:46:16;13.38;;;11.43;;
79631;SDS011;69108;41.120;16.874;2023-08-20T08:48:44;17.95;;;12.18;;
79631;SDS011;69108;41.120;16.874;2023-08-20T08:51:14;15.85;;;11.43;;
79631;SDS011;69108;41.120;16.874;2023-08-20T08:53:41;16.60;;;11.77;;
79631;SDS011;69108;41.120;16.874;2023-08-20T08:56:09;17.13;;;12.18;;
79631;SDS011;69108;41.120;16.874;2023-08-20T08:58:38;15.32;;;11.60;;
79631;SDS011;69108;41.120;16.874;2023-08-20T09:03:32;15.88;;;11.75;;
79631;SDS011;69108;41.120;16.874;2023-08-20T09:05:59;16.45;;;10.88;;
79631;SDS011;69108;41.120;16.874;2023-08-20T09:08:30;14.55;;;11.15;;
79631;SDS011;69108;41.120;16.874;2023-08-20T09:10:58;15.38;;;11.48;;
79631;SDS011;69108;41.120;16.874;2023-08-20T09:13:26;15.52;;;10.75;;
79631;SDS011;69108;41.120;16.874;2023-08-20T09:15:59;13.35;;;11.30;;
79631;SDS011;69108;41.120;16.874;2023-08-20T09:18:26;15.55;;;11.77;;
79631;SDS011;69108;41.120;16.874;2023-08-20T09:20:53;16.90;;;12.05;;
79631;SDS011;69108;41.120;16.874;2023-08-20T09:23:21;15.30;;;12.15;;
79631;SDS011;69108;41.120;16.874;2023-08-20T09:25:50;15.48;;;12.50;;
79631;SDS011;69108;41.120;16.874;2023-08-20T09:28:20;20.10;;;11.88;;
79631;SDS011;69108;41.120;16.874;2023-08-20T09:30:57;14.18;;;11.73;;
79631;SDS011;69108;41.120;16.874;2023-08-20T09:33:27;14.25;;;12.00;;
79631;SDS011;69108;41.120;16.874;2023-08-20T09:35:54;16.15;;;11.93;;
79631;SDS011;69108;41.120;16.874;2023-08-20T09:38:22;16.08;;;11.95;;
79631;SDS011;69108;41.120;16.874;2023-08-20T09:40:52;14.50;;;12.25;;
79631;SDS011;69108;41.120;16.874;2023-08-20T09:43:21;16.95;;;11.82;;
79631;SDS011;69108;41.120;16.874;2023-08-20T09:45:51;16.58;;;12.70;;
79631;SDS011;69108;41.120;16.874;2023-08-20T09:48:21;14.30;;;11.68;;
79631;SDS011;69108;41.120;16.874;2023-08-20T09:50:48;14.80;;;12.45;;
79631;SDS011;69108;41.120;16.874;2023-08-20T09:53:17;16.65;;;12.00;;
79631;SDS011;69108;41.120;16.874;2023-08-20T09:55:47;16.58;;;12.52;;
79631;SDS011;69108;41.120;16.874;2023-08-20T09:58:17;16.67;;;12.70;;
79631;SDS011;69108;41.120;16.874;2023-08-20T10:00:47;14.95;;;12.27;;
79631;SDS011;69108;41.120;16.874;2023-08-20T10:03:15;17.13;;;12.55;;
79631;SDS011;69108;41.120;16.874;2023-08-20T10:05:42;17.27;;;11.80;;
79631;SDS011;69108;41.120;16.874;2023-08-20T10:08:08;18.52;;;13.57;;
79631;SDS011;69108;41.120;16.874;2023-08-20T10:10:35;17.85;;;13.38;;
79631;SDS011;69108;41.120;16.874;2023-08-20T10:13:03;15.75;;;13.25;;
79631;SDS011;69108;41.120;16.874;2023-08-20T10:15:31;16.85;;;13.30;;
79631;SDS011;69108;41.120;16.874;2023-08-20T10:18:01;19.08;;;13.75;;
79631;SDS011;69108;41.120;16.874;2023-08-20T10:20:28;16.23;;;12.40;;
79631;SDS011;69108;41.120;16.874;2023-08-20T10:22:59;16.23;;;13.25;;
79631;SDS011;69108;41.120;16.874;2023-08-20T10:25:27;16.17;;;12.75;;
79631;SDS011;69108;41.120;16.874;2023-08-20T10:27:54;16.73;;;14.43;;
79631;SDS011;69108;41.120;16.874;2023-08-20T10:30:25;19.45;;;14.02;;
79631;SDS011;69108;41.120;16.874;2023-08-20T10:32:55;16.25;;;12.75;;
79631;SDS011;69108;41.120;16.874;2023-08-20T10:35:24;17.80;;;14.00;;
79631;SDS011;69108;41.120;16.874;2023-08-20T10:38:02;16.45;;;12.75;;
79631;SDS011;69108;41.120;16.874;2023-08-20T10:40:49;16.35;;;12.90;;
79631;SDS011;69108;41.120;16.874;2023-08-20T10:43:28;16.55;;;12.50;;
79631;SDS011;69108;41.120;16.874;2023-08-20T10:46:04;14.65;;;12.02;;
79631;SDS011;69108;41.120;16.874;2023-08-20T10:48:33;16.05;;;12.07;;
79631;SDS011;69108;41.120;16.874;2023-08-20T10:51:11;16.60;;;12.80;;
79631;SDS011;69108;41.120;16.874;2023-08-20T10:53:40;16.92;;;12.80;;
79631;SDS011;69108;41.120;16.874;2023-08-20T10:56:08;16.58;;;12.70;;
79631;SDS011;69108;41.120;16.874;2023-08-20T10:58:38;17.63;;;13.05;;
79631;SDS011;69108;41.120;16.874;2023-08-20T11:01:15;18.55;;;13.50;;
79631;SDS011;69108;41.120;16.874;2023-08-20T11:03:47;15.63;;;11.98;;
79631;SDS011;69108;41.120;16.874;2023-08-20T11:06:15;16.35;;;11.73;;
79631;SDS011;69108;41.120;16.874;2023-08-20T11:08:43;15.55;;;11.65;;
79631;SDS011;69108;41.120;16.874;2023-08-20T11:11:10;16.38;;;12.73;;
79631;SDS011;69108;41.120;16.874;2023-08-20T11:13:38;16.48;;;12.30;;
79631;SDS011;69108;41.120;16.874;2023-08-20T11:16:05;16.63;;;12.32;;
79631;SDS011;69108;41.120;16.874;2023-08-20T11:18:32;19.45;;;13.30;;
79631;SDS011;69108;41.120;16.874;2023-08-20T11:21:01;19.77;;;13.57;;
79631;SDS011;69108;41.120;16.874;2023-08-20T11:23:29;19.73;;;15.10;;
79631;SDS011;69108;41.120;16.874;2023-08-20T11:25:56;20.08;;;14.65;;
79631;SDS011;69108;41.120;16.874;2023-08-20T11:28:24;20.92;;;14.30;;
79631;SDS011;69108;41.120;16.874;2023-08-20T11:30:51;19.38;;;13.68;;
79631;SDS011;69108;41.120;16.874;2023-08-20T11:33:19;21.27;;;13.93;;
79631;SDS011;69108;41.120;16.874;2023-08-20T11:35:47;20.50;;;14.40;;
79631;SDS011;69108;41.120;16.874;2023-08-20T11:38:15;17.67;;;13.52;;
79631;SDS011;69108;41.120;16.874;2023-08-20T11:40:42;16.27;;;13.80;;
79631;SDS011;69108;41.120;16.874;2023-08-20T11:43:09;19.10;;;13.45;;
79631;SDS011;69108;41.120;16.874;2023-08-20T11:45:46;19.80;;;13.30;;
79631;SDS011;69108;41.120;16.874;2023-08-20T11:48:14;17.98;;;13.15;;
79631;SDS011;69108;41.120;16.874;2023-08-20T11:50:41;22.35;;;13.50;;
79631;SDS011;69108;41.120;16.874;2023-08-20T11:53:08;16.95;;;12.88;;
79631;SDS011;69108;41.120;16.874;2023-08-20T11:55:37;19.20;;;13.75;;
79631;SDS011;69108;41.120;16.874;2023-08-20T11:58:04;19.95;;;14.00;;
79631;SDS011;69108;41.120;16.874;2023-08-20T12:00:31;22.98;;;12.98;;
79631;SDS011;69108;41.120;16.874;2023-08-20T12:02:58;17.98;;;12.73;;
79631;SDS011;69108;41.120;16.874;2023-08-20T12:05:28;19.10;;;13.68;;
79631;SDS011;69108;41.120;16.874;2023-08-20T12:07:56;22.13;;;14.10;;
79631;SDS011;69108;41.120;16.874;2023-08-20T12:10:24;18.38;;;13.02;;
79631;SDS011;69108;41.120;16.874;2023-08-20T12:12:53;17.98;;;14.00;;
79631;SDS011;69108;41.120;16.874;2023-08-20T12:15:21;18.92;;;14.15;;
79631;SDS011;69108;41.120;16.874;2023-08-20T12:17:55;19.10;;;12.32;;
79631;SDS011;69108;41.120;16.874;2023-08-20T12:20:26;19.73;;;13.82;;
79631;SDS011;69108;41.120;16.874;2023-08-20T12:22:57;17.45;;;14.10;;
79631;SDS011;69108;41.120;16.874;2023-08-20T12:25:25;18.35;;;14.27;;
79631;SDS011;69108;41.120;16.874;2023-08-20T12:27:53;22.35;;;14.98;;
79631;SDS011;69108;41.120;16.874;2023-08-20T12:30:21;19.52;;;13.77;;
79631;SDS011;69108;41.120;16.874;2023-08-20T12:32:48;19.95;;;13.95;;
79631;SDS011;69108;41.120;16.874;2023-08-20T12:35:14;19.73;;;14.35;;
79631;SDS011;69108;41.120;16.874;2023-08-20T12:37:41;18.38;;;13.68;;
79631;SDS011;69108;41.120;16.874;2023-08-20T12:40:08;17.00;;;13.38;;
79631;SDS011;69108;41.120;16.874;2023-08-20T12:42:37;19.05;;;14.38;;
79631;SDS011;69108;41.120;16.874;2023-08-20T12:45:06;19.85;;;13.45;;
79631;SDS011;69108;41.120;16.874;2023-08-20T12:47:35;21.75;;;14.88;;
79631;SDS011;69108;41.120;16.874;2023-08-20T12:52:30;20.50;;;15.10;;
79631;SDS011;69108;41.120;16.874;2023-08-20T12:54:57;20.70;;;14.40;;
79631;SDS011;69108;41.120;16.874;2023-08-20T12:59:50;19.80;;;14.55;;
79631;SDS011;69108;41.120;16.874;2023-08-20T13:02:19;22.75;;;15.80;;
79631;SDS011;69108;41.120;16.874;2023-08-20T13:04:46;19.10;;;14.38;;
79631;SDS011;69108;41.120;16.874;2023-08-20T13:07:15;21.45;;;14.35;;
79631;SDS011;69108;41.120;16.874;2023-08-20T13:09:42;21.75;;;14.57;;
79631;SDS011;69108;41.120;16.874;2023-08-20T13:12:10;21.98;;;15.10;;
79631;SDS011;69108;41.120;16.874;2023-08-20T13:14:39;24.35;;;14.98;;
79631;SDS011;69108;41.120;16.874;2023-08-20T13:17:07;17.83;;;14.00;;
79631;SDS011;69108;41.120;16.874;2023-08-20T13:19:36;18.98;;;13.95;;
79631;SDS011;69108;41.120;16.874;2023-08-20T13:22:03;18.42;;;12.88;;
79631;SDS011;69108;41.120;16.874;2023-08-20T13:24:31;17.70;;;13.63;;
79631;SDS011;69108;41.120;16.874;2023-08-20T13:26:58;17.67;;;13.02;;
79631;SDS011;69108;41.120;16.874;2023-08-20T13:29:25;19.58;;;13.18;;
79631;SDS011;69108;41.120;16.874;2023-08-20T13:31:52;19.33;;;13.48;;
79631;SDS011;69108;41.120;16.874;2023-08-20T13:34:19;19.85;;;13.43;;
79631;SDS011;69108;41.120;16.874;2023-08-20T13:36:47;20.70;;;13.50;;
79631;SDS011;69108;41.120;16.874;2023-08-20T13:39:14;21.67;;;13.38;;
79631;SDS011;69108;41.120;16.874;2023-08-20T13:41:43;16.75;;;12.63;;
79631;SDS011;69108;41.120;16.874;2023-08-20T13:46:36;19.17;;;12.57;;
79631;SDS011;69108;41.120;16.874;2023-08-20T13:49:03;19.92;;;12.68;;
79631;SDS011;69108;41.120;16.874;2023-08-20T13:51:30;18.75;;;12.57;;
79631;SDS011;69108;41.120;16.874;2023-08-20T13:53:58;17.63;;;12.85;;
79631;SDS011;69108;41.120;16.874;2023-08-20T13:56:26;16.30;;;12.40;;
79631;SDS011;69108;41.120;16.874;2023-08-20T13:58:54;16.13;;;13.18;;
79631;SDS011;69108;41.120;16.874;2023-08-20T14:03:47;17.33;;;13.57;;
79631;SDS011;69108;41.120;16.874;2023-08-20T14:06:15;19.08;;;13.68;;
79631;SDS011;69108;41.120;16.874;2023-08-20T14:08:42;19.55;;;13.05;;
79631;SDS011;69108;41.120;16.874;2023-08-20T14:11:10;19.00;;;13.25;;
79631;SDS011;69108;41.120;16.874;2023-08-20T14:13:37;20.88;;;13.50;;
79631;SDS011;69108;41.120;16.874;2023-08-20T14:18:30;20.67;;;13.82;;
79631;SDS011;69108;41.120;16.874;2023-08-20T14:20:57;18.55;;;14.57;;
79631;SDS011;69108;41.120;16.874;2023-08-20T14:23:24;22.00;;;14.40;;
79631;SDS011;69108;41.120;16.874;2023-08-20T14:28:21;18.50;;;13.35;;
79631;SDS011;69108;41.120;16.874;2023-08-20T14:30:48;21.85;;;13.18;;
79631;SDS011;69108;41.120;16.874;2023-08-20T14:33:15;19.80;;;13.13;;
79631;SDS011;69108;41.120;16.874;2023-08-20T14:35:42;20.48;;;12.55;;
79631;SDS011;69108;41.120;16.874;2023-08-20T14:38:09;19.67;;;12.43;;
79631;SDS011;69108;41.120;16.874;2023-08-20T14:40:37;22.90;;;11.80;;
79631;SDS011;69108;41.120;16.874;2023-08-20T14:43:04;19.40;;;11.90;;
79631;SDS011;69108;41.120;16.874;2023-08-20T14:45:33;23.50;;;12.00;;
79631;SDS011;69108;41.120;16.874;2023-08-20T14:48:00;16.20;;;11.18;;
79631;SDS011;69108;41.120;16.874;2023-08-20T14:50:28;18.92;;;12.25;;
79631;SDS011;69108;41.120;16.874;2023-08-20T14:55:21;19.60;;;12.40;;
79631;SDS011;69108;41.120;16.874;2023-08-20T14:57:48;21.80;;;12.38;;
79631;SDS011;69108;41.120;16.874;2023-08-20T15:00:15;16.58;;;11.43;;
79631;SDS011;69108;41.120;16.874;2023-08-20T15:02:43;18.77;;;11.85;;
79631;SDS011;69108;41.120;16.874;2023-08-20T15:05:10;19.55;;;12.40;;
79631;SDS011;69108;41.120;16.874;2023-08-20T15:10:04;18.15;;;12.27;;
79631;SDS011;69108;41.120;16.874;2023-08-20T15:12:32;21.77;;;12.25;;
79631;SDS011;69108;41.120;16.874;2023-08-20T15:14:59;21.85;;;13.38;;